Time;durP1;ratioP1;P1;durP2;ratioP2;P2;SDS_P1;SDS_P2;PMS_P1;PMS_P2;Temp;Humidity;BMP_temperature;BMP_pressure;BME280_temperature;BME280_humidity;BME280_pressure;Samples;Min_cycle;Max_cycle;Signal;HPM_P1;HPM_P2
2022/05/20 00:00:07;;;;;;;31.10;17.90;;;;;;;15.09;62.52;102279.28;5219007;28;20423;-48
2022/05/20 00:02:39;;;;;;;27.98;17.15;;;;;;;15.05;62.63;102269.91;5214478;28;20818;-52
2022/05/20 00:05:12;;;;;;;26.20;18.47;;;;;;;14.82;62.61;102242.81;5209561;28;20476;-49
2022/05/20 00:07:45;;;;;;;33.72;18.60;;;;;;;15.00;62.63;102273.00;5203530;28;20420;-50
2022/05/20 00:10:19;;;;;;;29.98;18.17;;;;;;;14.91;62.72;102269.38;5201054;28;20418;-48
2022/05/20 00:12:53;;;;;;;29.13;19.17;;;;;;;14.82;62.64;102256.09;5208412;28;20913;-51
2022/05/20 00:15:28;;;;;;;33.15;19.52;;;;;;;14.84;62.67;102262.13;5207965;28;20506;-49
2022/05/20 00:18:01;;;;;;;37.65;19.98;;;;;;;14.93;62.80;102287.88;5215500;28;20413;-50
2022/05/20 00:20:34;;;;;;;37.80;21.20;;;;;;;14.92;62.77;102281.69;5217433;28;20918;-53
2022/05/20 00:23:08;;;;;;;29.73;20.07;;;;;;;14.87;62.88;102273.31;5210364;28;20525;-54
2022/05/20 00:25:48;;;;;;;30.95;19.88;;;;;;;14.89;62.85;102287.28;5193970;28;20475;-54
2022/05/20 00:28:26;;;;;;;31.23;19.77;;;;;;;14.73;62.93;102245.31;5200355;28;20414;-52
2022/05/20 00:31:12;;;;;;;37.67;21.33;;;;;;;14.47;62.75;102204.34;5200656;28;21218;-51
2022/05/20 00:33:48;;;;;;;33.45;22.27;;;;;;;14.87;62.90;102269.81;5206954;28;20428;-53
2022/05/20 00:36:24;;;;;;;30.23;20.15;;;;;;;14.86;62.95;102268.13;5202186;28;20407;-54
2022/05/20 00:38:57;;;;;;;30.00;20.33;;;;;;;14.38;62.74;102181.28;5171870;28;20522;-49
2022/05/20 00:41:29;;;;;;;29.80;20.20;;;;;;;14.83;62.89;102261.25;5146599;28;20881;-52
2022/05/20 00:44:03;;;;;;;37.00;21.38;;;;;;;14.79;62.94;102251.06;5149501;28;20426;-50
2022/05/20 00:46:36;;;;;;;31.25;21.48;;;;;;;14.62;62.83;102229.56;5203105;28;20510;-53
2022/05/20 00:49:16;;;;;;;34.20;22.88;;;;;;;14.78;62.88;102252.06;5173729;28;20690;-49
2022/05/20 00:51:54;;;;;;;36.20;20.75;;;;;;;14.74;62.99;102247.03;5207376;28;25753;-49
2022/05/20 00:54:33;;;;;;;32.13;21.57;;;;;;;14.62;63.12;102226.91;5214421;28;20477;-51
2022/05/20 00:57:10;;;;;;;30.48;20.80;;;;;;;14.57;63.00;102234.44;5213941;28;20518;-49
2022/05/20 00:59:49;;;;;;;37.58;22.08;;;;;;;14.32;63.11;102214.56;5214404;28;20484;-48
2022/05/20 01:02:24;;;;;;;29.67;20.98;;;;;;;14.61;63.03;102245.63;5209941;28;20412;-49
2022/05/20 01:05:00;;;;;;;40.17;22.03;;;;;;;14.60;63.06;102243.97;5209855;28;20499;-51
2022/05/20 01:07:37;;;;;;;30.23;22.33;;;;;;;14.44;63.17;102218.75;5208791;28;20417;-50
2022/05/20 01:10:13;;;;;;;29.98;22.08;;;;;;;14.36;63.02;102204.50;5212977;28;20849;-50
2022/05/20 01:12:45;;;;;;;38.13;22.77;;;;;;;14.55;63.26;102233.75;5211667;28;20996;-50
2022/05/20 01:15:19;;;;;;;33.70;22.65;;;;;;;14.42;63.21;102246.47;5209657;28;20417;-47
2022/05/20 01:17:55;;;;;;;31.85;22.67;;;;;;;14.50;63.31;102239.47;5210650;28;20509;-48
2022/05/20 01:20:31;;;;;;;36.05;23.85;;;;;;;14.48;63.30;102228.13;5209284;28;20578;-48
2022/05/20 01:23:10;;;;;;;33.20;22.48;;;;;;;14.48;63.45;102235.25;5203902;28;20429;-52
2022/05/20 01:25:47;;;;;;;37.33;24.38;;;;;;;14.35;63.48;102218.78;5213320;28;20413;-49
2022/05/20 01:28:22;;;;;;;35.33;23.83;;;;;;;14.41;63.35;102234.16;5212247;28;20414;-50
2022/05/20 01:30:57;;;;;;;35.35;23.85;;;;;;;13.68;63.35;102117.66;5212379;28;20428;-50
2022/05/20 01:33:33;;;;;;;43.30;24.33;;;;;;;14.41;63.39;102212.91;5210855;28;20421;-48
2022/05/20 01:36:13;;;;;;;33.65;22.73;;;;;;;14.49;63.34;102226.28;5219498;28;20469;-53
2022/05/20 01:38:47;;;;;;;35.25;23.25;;;;;;;14.25;63.42;102177.09;5198416;28;20470;-52
2022/05/20 01:41:27;;;;;;;41.05;24.20;;;;;;;14.42;63.39;102207.41;5187954;28;20502;-46
2022/05/20 01:44:08;;;;;;;40.70;24.63;;;;;;;13.95;63.54;102143.53;5191896;28;20449;-51
2022/05/20 01:46:46;;;;;;;44.13;24.33;;;;;;;14.19;63.57;102176.81;5206847;28;20409;-50
2022/05/20 01:49:40;;;;;;;39.92;24.63;;;;;;;14.43;63.53;102201.16;5211069;28;20433;-48
2022/05/20 01:52:23;;;;;;;36.45;22.60;;;;;;;14.34;63.76;102190.50;5208928;28;20413;-47
2022/05/20 01:55:04;;;;;;;34.85;22.55;;;;;;;14.41;63.66;102208.41;5204475;28;20908;-47
2022/05/20 01:57:42;;;;;;;34.55;22.73;;;;;;;14.38;63.76;102213.19;5189645;28;20433;-48
2022/05/20 02:00:20;;;;;;;32.88;21.60;;;;;;;14.39;63.78;102209.53;5208322;28;20407;-49
2022/05/20 02:03:00;;;;;;;34.17;21.17;;;;;;;14.09;63.78;102155.56;5208535;28;20482;-48
2022/05/20 02:05:42;;;;;;;40.45;23.58;;;;;;;14.36;63.58;102204.50;5200170;28;20821;-51
2022/05/20 02:08:28;;;;;;;39.47;25.52;;;;;;;14.21;63.79;102170.38;5192803;28;20417;-53
2022/05/20 02:11:07;;;;;;;37.20;23.83;;;;;;;14.22;63.70;102165.91;5206398;28;20429;-50
2022/05/20 02:13:47;;;;;;;37.05;23.50;;;;;;;14.15;63.81;102162.97;5207503;28;20412;-50
2022/05/20 02:16:28;;;;;;;32.67;23.38;;;;;;;14.30;63.91;102190.78;5202314;28;20431;-47
2022/05/20 02:19:06;;;;;;;42.15;24.00;;;;;;;14.16;64.00;102177.09;5209299;28;20921;-51
2022/05/20 02:21:46;;;;;;;41.45;25.77;;;;;;;14.26;64.00;102192.03;5213541;28;20416;-48
2022/05/20 02:24:24;;;;;;;37.75;23.05;;;;;;;14.14;63.95;102184.38;5204918;28;20406;-45
2022/05/20 02:27:02;;;;;;;32.65;22.92;;;;;;;14.19;64.03;102179.47;5207453;28;20399;-48
2022/05/20 02:29:42;;;;;;;33.50;21.53;;;;;;;13.88;64.03;102131.81;5214297;28;20568;-51
2022/05/20 02:32:21;;;;;;;30.67;20.63;;;;;;;14.24;64.11;102191.34;5211377;28;20400;-47
2022/05/20 02:34:54;;;;;;;37.65;23.70;;;;;;;14.08;64.02;102168.00;5198031;28;20508;-49
2022/05/20 02:37:33;;;;;;;39.42;24.15;;;;;;;14.27;64.13;102200.84;5208171;28;20484;-50
2022/05/20 02:40:09;;;;;;;36.03;23.05;;;;;;;14.25;64.06;102185.06;5213700;28;20450;-50
2022/05/20 02:42:43;;;;;;;40.42;23.13;;;;;;;14.27;64.10;102206.16;5217740;28;20403;-49
2022/05/20 02:45:17;;;;;;;38.03;23.52;;;;;;;14.32;64.10;102193.31;5212806;28;20501;-49
2022/05/20 02:47:50;;;;;;;39.35;26.73;;;;;;;14.23;64.18;102179.03;5210549;28;20469;-52
2022/05/20 02:50:22;;;;;;;53.38;29.88;;;;;;;14.34;64.23;102191.38;5214735;28;20512;-47
2022/05/20 02:52:55;;;;;;;50.63;28.70;;;;;;;14.23;64.05;102162.28;5199429;28;20511;-48
2022/05/20 02:55:28;;;;;;;42.55;25.80;;;;;;;14.32;64.16;102197.78;5207672;28;20425;-51
2022/05/20 02:58:01;;;;;;;41.00;25.13;;;;;;;14.38;64.22;102182.13;5213321;28;20430;-51
2022/05/20 03:06:14;;;;;;;37.08;24.60;;;;;;;14.31;64.29;102181.00;5212957;28;20454;-50
2022/05/20 03:08:46;;;;;;;36.97;24.67;;;;;;;14.17;64.26;102157.53;5209391;28;20417;-51
2022/05/20 03:11:22;;;;;;;43.40;26.33;;;;;;;14.14;64.37;102152.50;5182573;28;21020;-44
2022/05/20 03:13:58;;;;;;;37.08;23.95;;;;;;;14.08;64.33;102148.56;5216014;28;20409;-53
2022/05/20 03:16:32;;;;;;;32.72;23.00;;;;;;;14.23;64.35;102179.03;5213113;28;20418;-56
2022/05/20 03:19:08;;;;;;;44.08;25.80;;;;;;;14.21;64.50;102186.31;5216750;28;20431;-52
2022/05/20 03:21:42;;;;;;;35.47;23.67;;;;;;;14.04;64.42;102163.13;5201866;28;20464;-48
2022/05/20 03:24:15;;;;;;;48.13;26.25;;;;;;;14.04;64.76;102163.13;5213355;28;20407;-46
2022/05/20 03:26:48;;;;;;;40.58;23.75;;;;;;;14.18;64.46;102199.88;5205967;28;20499;-47
2022/05/20 03:29:22;;;;;;;43.05;25.25;;;;;;;13.89;64.47;102143.28;5211189;28;20431;-49
2022/05/20 03:31:55;;;;;;;42.03;26.27;;;;;;;14.07;64.53;102184.09;5210906;28;20510;-49
2022/05/20 03:34:27;;;;;;;44.05;24.90;;;;;;;14.15;64.38;102192.19;5213971;28;20444;-48
2022/05/20 03:37:00;;;;;;;43.55;27.40;;;;;;;14.15;64.46;102192.19;5214139;28;20414;-50
2022/05/20 03:39:33;;;;;;;39.78;25.13;;;;;;;13.73;64.46;102141.16;5216387;28;20473;-49
2022/05/20 03:42:06;;;;;;;40.15;25.65;;;;;;;13.49;64.33;102099.09;5213409;28;20535;-49
2022/05/20 03:44:40;;;;;;;41.20;24.63;;;;;;;14.01;64.44;102180.16;5212060;28;20508;-47
2022/05/20 03:47:19;;;;;;;50.93;28.90;;;;;;;14.10;64.45;102189.13;5207810;28;20414;-47
2022/05/20 03:49:51;;;;;;;54.05;32.00;;;;;;;13.99;64.64;102165.34;5193679;28;20923;-48
2022/05/20 03:52:24;;;;;;;46.55;27.65;;;;;;;14.10;64.50;102181.16;5198573;28;20500;-51
2022/05/20 03:54:56;;;;;;;46.97;28.60;;;;;;;13.28;64.45;102044.31;5196063;28;20421;-50
2022/05/20 03:57:29;;;;;;;48.55;28.05;;;;;;;13.93;64.44;102149.97;5186715;28;20421;-46
2022/05/20 04:00:03;;;;;;;48.72;30.90;;;;;;;14.08;64.50;102161.84;5199035;28;20901;-47
2022/05/20 04:02:36;;;;;;;57.47;34.08;;;;;;;13.99;64.59;102141.44;5198258;28;20975;-47
2022/05/20 04:05:09;;;;;;;57.85;34.15;;;;;;;14.09;64.75;102166.22;5189924;28;22366;-48
2022/05/20 04:07:41;;;;;;;49.13;31.30;;;;;;;14.11;64.68;102158.91;5163604;28;20895;-47
2022/05/20 04:10:14;;;;;;;46.42;30.55;;;;;;;14.16;64.71;102162.00;5189895;28;20405;-50
2022/05/20 04:12:46;;;;;;;49.90;31.13;;;;;;;14.18;64.75;102165.34;5188935;28;20425;-48
2022/05/20 04:15:22;;;;;;;46.33;28.60;;;;;;;14.20;64.68;102160.72;5189471;28;20409;-51
2022/05/20 04:17:55;;;;;;;47.17;29.60;;;;;;;14.21;64.70;102156.25;5185236;28;22408;-49
2022/05/20 04:20:28;;;;;;;49.45;31.58;;;;;;;14.18;64.73;102149.38;5191841;28;20757;-50
2022/05/20 04:23:00;;;;;;;48.28;33.40;;;;;;;14.38;64.69;102158.19;5190577;28;20432;-52
2022/05/20 04:25:35;;;;;;;46.88;30.95;;;;;;;14.43;64.75;102174.56;5181752;28;20871;-46
2022/05/20 04:28:11;;;;;;;55.63;33.88;;;;;;;14.47;64.91;102159.16;5187967;28;20935;-49
2022/05/20 04:30:45;;;;;;;46.22;31.88;;;;;;;14.56;64.86;102163.66;5182588;28;20435;-50
2022/05/20 04:33:20;;;;;;;46.33;30.50;;;;;;;14.56;64.96;102179.59;5185977;28;20494;-47
2022/05/20 04:35:53;;;;;;;45.70;28.13;;;;;;;14.74;64.95;102161.94;5154273;28;20419;-51
2022/05/20 04:38:26;;;;;;;44.63;28.35;;;;;;;14.81;65.03;102164.84;5184771;28;20499;-52
2022/05/20 04:49:31;;;;;;;36.55;26.60;;;;;;;14.51;65.11;102064.88;5184345;28;20415;-49
2022/05/20 04:52:05;;;;;;;34.38;24.58;;;;;;;15.06;65.25;102136.75;5193690;28;20925;-50
2022/05/20 04:54:53;;;;;;;38.63;24.55;;;;;;;15.16;65.20;102156.16;5204701;28;20847;-48
2022/05/20 04:57:30;;;;;;;38.40;22.70;;;;;;;15.26;65.12;102145.44;5208529;28;20407;-48
2022/05/20 05:00:06;;;;;;;33.58;23.63;;;;;;;15.30;65.23;102141.53;5209732;28;20410;-50
2022/05/20 05:02:41;;;;;;;32.30;22.63;;;;;;;15.33;65.28;102135.03;5202604;28;20448;-51
2022/05/20 05:05:17;;;;;;;33.33;21.90;;;;;;;15.01;65.26;102067.16;5205630;28;20418;-49
2022/05/20 05:07:52;;;;;;;35.83;22.08;;;;;;;15.49;65.23;102135.25;5206065;28;20802;-44
2022/05/20 05:10:28;;;;;;;34.30;21.38;;;;;;;15.56;65.25;102128.31;5201233;28;20765;-53
2022/05/20 05:13:02;;;;;;;30.80;19.67;;;;;;;15.76;65.19;102141.50;5195416;28;20440;-48
2022/05/20 05:15:34;;;;;;;29.60;18.85;;;;;;;15.80;65.13;102132.25;5207677;28;20820;-49
2022/05/20 05:18:12;;;;;;;24.45;18.05;;;;;;;15.98;65.21;102162.38;5211777;28;20485;-52
2022/05/20 05:20:51;;;;;;;25.03;15.47;;;;;;;16.50;64.76;102098.44;5205021;28;20470;-53
2022/05/20 05:23:24;;;;;;;23.88;13.35;;;;;;;17.55;63.48;102136.41;5202285;28;20419;-50
2022/05/20 05:25:57;;;;;;;23.92;12.90;;;;;;;18.42;63.18;102150.16;5202001;28;20475;-49
2022/05/20 05:28:30;;;;;;;16.58;10.88;;;;;;;19.82;61.97;102164.69;5194730;28;20429;-53
2022/05/20 05:31:03;;;;;;;19.70;10.40;;;;;;;20.93;60.80;102147.91;5201110;28;20460;-52
2022/05/20 05:33:37;;;;;;;16.45;9.82;;;;;;;22.21;59.33;102159.84;5201505;28;20432;-54
2022/05/20 05:36:11;;;;;;;12.43;7.18;;;;;;;23.22;57.76;102127.91;5187581;28;20401;-55
2022/05/20 05:38:43;;;;;;;11.45;6.13;;;;;;;24.07;56.58;102159.84;5201180;28;20429;-55
2022/05/20 05:41:17;;;;;;;17.20;6.60;;;;;;;24.68;55.48;102159.56;5196072;28;20409;-57
2022/05/20 05:43:50;;;;;;;11.25;5.47;;;;;;;25.57;53.80;102160.69;5204904;28;20834;-55
2022/05/20 05:46:23;;;;;;;12.73;5.87;;;;;;;26.36;52.29;102156.56;5199886;28;20464;-55
2022/05/20 05:49:00;;;;;;;11.43;4.80;;;;;;;26.60;51.48;102152.19;5207457;28;20421;-57
2022/05/20 05:51:33;;;;;;;12.40;5.82;;;;;;;26.33;51.05;102123.69;5207366;28;20467;-55
2022/05/20 05:54:05;;;;;;;14.73;6.18;;;;;;;26.20;50.71;102157.13;5206472;28;20409;-56
2022/05/20 05:56:38;;;;;;;14.65;6.47;;;;;;;25.74;50.77;102151.00;5205039;28;20456;-56
2022/05/20 05:59:11;;;;;;;16.30;6.78;;;;;;;25.45;50.62;102143.50;5208403;28;20562;-57
2022/05/20 06:01:43;;;;;;;12.98;6.30;;;;;;;25.56;50.09;102139.28;5209235;28;20462;-55
2022/05/20 06:04:17;;;;;;;10.77;6.35;;;;;;;25.95;49.33;102139.03;5210794;28;20402;-58
2022/05/20 06:06:50;;;;;;;12.60;5.68;;;;;;;25.98;48.60;102137.72;5207149;28;20520;-55
2022/05/20 06:09:23;;;;;;;10.35;5.45;;;;;;;25.70;48.51;102152.47;5211802;28;20482;-55
2022/05/20 06:11:56;;;;;;;12.23;5.90;;;;;;;25.22;48.72;102144.88;5211251;28;20498;-51
2022/05/20 06:14:29;;;;;;;12.40;5.57;;;;;;;24.56;48.85;102145.09;5224606;28;20494;-50
2022/05/20 06:17:01;;;;;;;13.07;5.63;;;;;;;24.02;49.02;102122.69;5211504;28;20413;-55
2022/05/20 06:19:35;;;;;;;11.35;5.72;;;;;;;23.84;49.23;102144.88;5211446;28;20537;-54
2022/05/20 06:22:08;;;;;;;15.23;5.70;;;;;;;23.92;48.93;102136.59;5211410;28;20814;-51
2022/05/20 06:24:41;;;;;;;13.85;6.40;;;;;;;24.31;48.24;102118.72;5212554;28;20830;-54
2022/05/20 06:27:13;;;;;;;9.07;4.20;;;;;;;25.20;47.40;102133.44;5210820;28;20907;-52
2022/05/20 06:29:48;;;;;;;13.10;5.00;;;;;;;26.41;45.84;102126.91;5209881;28;20421;-54
2022/05/20 06:32:21;;;;;;;12.40;4.57;;;;;;;27.35;44.69;102123.97;5207892;28;20794;-57
2022/05/20 06:40:44;;;;;;;5.72;3.08;;;;;;;27.67;43.71;102123.69;5210824;28;20449;-53
2022/05/20 06:43:20;;;;;;;11.65;3.15;;;;;;;28.05;43.00;102129.53;5212130;28;20413;-55
2022/05/20 06:45:56;;;;;;;8.55;3.40;;;;;;;27.94;42.41;102059.78;5208798;28;20409;-55
2022/05/20 06:48:45;;;;;;;8.68;3.08;;;;;;;28.09;42.40;102115.50;5211990;28;20492;-56
2022/05/20 06:51:23;;;;;;;4.70;2.60;;;;;;;27.91;42.26;102111.84;5211733;28;20498;-56
2022/05/20 06:53:59;;;;;;;8.48;2.70;;;;;;;28.03;42.09;102122.72;5200225;28;20882;-56
2022/05/20 06:56:32;;;;;;;6.05;2.20;;;;;;;28.03;41.90;102106.44;5219335;28;20771;-57
2022/05/20 06:59:07;;;;;;;7.47;2.55;;;;;;;28.28;41.40;102125.19;5221152;28;20419;-56
2022/05/20 07:01:39;;;;;;;5.28;2.80;;;;;;;27.71;42.08;102130.31;5217115;28;22609;-56
2022/05/20 07:04:12;;;;;;;7.90;2.65;;;;;;;27.76;41.82;102133.16;5212727;28;20405;-54
2022/05/20 07:06:46;;;;;;;6.05;2.13;;;;;;;28.32;41.11;102114.69;5210642;28;20417;-56
2022/05/20 07:09:18;;;;;;;4.45;2.17;;;;;;;28.94;40.40;102134.78;5210576;28;20421;-56
2022/05/20 07:11:53;;;;;;;7.17;2.17;;;;;;;29.16;40.08;102096.06;5204220;28;20505;-54
2022/05/20 07:14:53;;;;;;;5.68;1.92;;;;;;;29.64;39.48;102116.53;5207779;28;20908;-54
2022/05/20 07:17:25;;;;;;;6.30;1.90;;;;;;;29.24;39.79;102111.19;5207047;28;20854;-55
2022/05/20 07:19:58;;;;;;;7.88;2.22;;;;;;;28.67;40.23;102103.75;5209961;28;20453;-54
2022/05/20 07:22:32;;;;;;;4.63;2.00;;;;;;;28.14;40.65;102110.19;5208920;28;20793;-55
2022/05/20 07:25:05;;;;;;;11.93;2.40;;;;;;;27.87;40.64;102102.50;5209642;28;20699;-56
2022/05/20 07:27:38;;;;;;;7.43;2.08;;;;;;;28.23;40.15;102084.31;5198117;28;20410;-56
2022/05/20 07:30:14;;;;;;;8.38;2.75;;;;;;;28.87;39.39;102090.59;5205122;28;20754;-55
2022/05/20 07:32:46;;;;;;;7.88;3.00;;;;;;;29.22;38.88;102092.38;5209689;28;20492;-53
2022/05/20 07:35:19;;;;;;;4.83;2.43;;;;;;;29.01;38.97;102098.47;5209113;28;20409;-57
2022/05/20 07:37:53;;;;;;;8.48;2.78;;;;;;;28.59;39.56;102101.44;5212397;28;20407;-55
2022/05/20 07:40:25;;;;;;;7.00;3.03;;;;;;;28.58;39.54;102097.06;5210340;28;20449;-56
2022/05/20 07:42:58;;;;;;;8.23;2.90;;;;;;;28.39;39.67;102105.31;5208761;28;20414;-53
2022/05/20 07:45:31;;;;;;;11.52;3.70;;;;;;;28.52;39.56;102092.56;5209441;28;20418;-53
2022/05/20 07:48:04;;;;;;;8.25;3.22;;;;;;;28.79;39.44;102082.81;5211228;28;20516;-52
2022/05/20 07:50:43;;;;;;;8.88;3.50;;;;;;;28.89;39.25;102093.88;5208367;28;20418;-55
2022/05/20 07:53:23;;;;;;;8.68;3.55;;;;;;;28.56;39.86;102089.16;5212255;28;20427;-55
2022/05/20 07:55:59;;;;;;;7.30;3.45;;;;;;;28.11;40.24;102073.47;5207029;28;20738;-54
2022/05/20 07:58:38;;;;;;;8.85;3.55;;;;;;;27.80;40.45;102045.59;5205458;28;20933;-55
2022/05/20 08:01:10;;;;;;;5.00;2.92;;;;;;;27.64;40.54;102061.75;5205602;28;20425;-54
2022/05/20 08:06:33;;;;;;;8.10;3.50;;;;;;;26.92;41.01;102054.44;5205747;28;20398;-54
2022/05/20 08:09:07;;;;;;;8.15;3.50;;;;;;;26.64;40.90;102023.31;5196457;28;20856;-54
2022/05/20 08:11:40;;;;;;;5.88;3.28;;;;;;;26.61;40.63;102039.22;5212575;28;22219;-55
2022/05/20 08:14:12;;;;;;;9.18;3.70;;;;;;;26.45;40.85;102022.50;5212077;28;20999;-54
2022/05/20 08:16:45;;;;;;;7.13;3.47;;;;;;;26.53;40.90;102031.38;5210488;28;20417;-56
2022/05/20 08:19:18;;;;;;;8.33;3.73;;;;;;;26.57;40.77;102017.19;5209429;28;20409;-51
2022/05/20 08:21:50;;;;;;;7.93;3.95;;;;;;;26.62;40.54;101997.50;5204052;28;20428;-53
2022/05/20 08:24:25;;;;;;;8.93;3.97;;;;;;;26.93;40.11;102026.28;5208376;28;20417;-54
2022/05/20 08:26:58;;;;;;;8.82;3.90;;;;;;;26.90;40.10;102016.72;5208285;28;20496;-53
2022/05/20 08:29:34;;;;;;;9.23;4.15;;;;;;;27.03;39.62;102029.25;5206530;28;20500;-55
2022/05/20 08:32:07;;;;;;;9.45;4.03;;;;;;;26.60;40.14;102030.28;5205444;28;20409;-54
2022/05/20 08:34:40;;;;;;;9.23;3.73;;;;;;;26.36;40.23;102009.50;5207182;28;20498;-55
2022/05/20 08:37:14;;;;;;;7.78;3.47;;;;;;;26.27;40.33;102008.13;5208235;28;20528;-55
2022/05/20 08:39:47;;;;;;;11.07;4.70;;;;;;;26.16;40.29;102015.94;5205412;28;20828;-55
2022/05/20 08:42:24;;;;;;;10.98;3.88;;;;;;;25.91;40.43;101998.94;5205196;28;20540;-48
2022/05/20 08:44:57;;;;;;;9.20;4.30;;;;;;;25.83;40.39;102000.06;5206297;28;20417;-51
2022/05/20 08:47:40;;;;;;;11.98;4.63;;;;;;;25.61;40.29;102004.16;5205044;28;20504;-51
2022/05/20 08:50:18;;;;;;;6.55;4.22;;;;;;;25.14;40.59;101939.66;5205892;28;20429;-52
2022/05/20 08:52:55;;;;;;;10.20;4.50;;;;;;;25.34;40.51;101984.66;5192360;28;20406;-52
2022/05/20 08:55:32;;;;;;;10.00;4.32;;;;;;;25.12;40.44;101966.06;5205673;28;20972;-52
2022/05/20 08:58:06;;;;;;;10.02;4.40;;;;;;;25.00;40.63;101967.81;5208013;28;20472;-57
2022/05/20 09:00:39;;;;;;;13.75;5.30;;;;;;;24.63;40.92;101956.81;5207833;28;20786;-54
2022/05/20 09:03:12;;;;;;;9.30;4.68;;;;;;;24.55;41.27;101957.06;5207975;28;20953;-55
2022/05/20 09:05:48;;;;;;;10.57;5.40;;;;;;;24.63;41.25;101946.00;5205986;28;20424;-56
2022/05/20 09:08:25;;;;;;;12.20;5.47;;;;;;;24.56;41.33;101918.22;5183942;28;20466;-47
2022/05/20 09:11:02;;;;;;;9.48;6.05;;;;;;;24.44;41.07;101909.16;5206748;28;20429;-53
2022/05/20 09:16:29;;;;;;;12.95;5.93;;;;;;;24.57;41.04;101919.88;5202703;28;20413;-53
2022/05/20 09:19:09;;;;;;;12.45;5.22;;;;;;;24.20;41.37;101913.38;5204757;28;20970;-52
2022/05/20 09:21:44;;;;;;;8.30;6.15;;;;;;;24.05;41.54;101908.25;5206684;28;20743;-52
2022/05/20 09:24:20;;;;;;;11.73;6.45;;;;;;;24.06;41.65;101917.97;5205935;28;20409;-54
2022/05/20 09:27:04;;;;;;;10.23;6.07;;;;;;;24.01;41.66;101888.13;5205867;28;20852;-54
2022/05/20 09:29:42;;;;;;;11.07;7.32;;;;;;;23.83;41.71;101878.00;5205844;28;20467;-54
2022/05/20 09:32:28;;;;;;;10.57;7.07;;;;;;;23.58;41.93;101872.47;5206769;28;20408;-53
2022/05/20 09:35:03;;;;;;;9.98;6.93;;;;;;;23.41;42.21;101889.09;5202770;28;20901;-48
2022/05/20 09:37:36;;;;;;;15.10;7.60;;;;;;;23.60;42.20;101900.88;5204675;28;20417;-50
2022/05/20 09:40:27;;;;;;;14.23;7.70;;;;;;;23.78;42.08;101897.53;5206002;28;20557;-52
2022/05/20 09:43:04;;;;;;;13.50;7.70;;;;;;;23.77;42.21;101903.97;5203661;28;20501;-58
2022/05/20 09:45:43;;;;;;;8.15;6.40;;;;;;;23.91;42.12;101899.38;5206362;28;20967;-53
2022/05/20 09:48:24;;;;;;;12.33;7.97;;;;;;;23.99;42.02;101882.09;5206825;28;20475;-54
2022/05/20 09:51:12;;;;;;;15.57;7.78;;;;;;;24.29;41.94;101882.41;5199903;28;20428;-54
2022/05/20 09:54:03;;;;;;;13.43;7.47;;;;;;;24.33;41.78;101876.34;5204359;28;20439;-53
2022/05/20 09:56:42;;;;;;;10.73;6.38;;;;;;;24.36;41.70;101861.56;5205794;28;20492;-52
2022/05/20 09:59:32;;;;;;;13.00;6.83;;;;;;;24.19;42.00;101852.31;5205411;28;20440;-51
2022/05/20 10:02:11;;;;;;;13.98;7.63;;;;;;;23.73;42.43;101840.69;5206279;28;20765;-53
2022/05/20 10:04:56;;;;;;;12.13;7.77;;;;;;;23.57;42.69;101838.41;5204476;28;20401;-53
2022/05/20 10:07:52;;;;;;;17.15;8.30;;;;;;;23.36;42.85;101836.84;5201240;28;20420;-51
2022/05/20 10:10:46;;;;;;;19.88;8.38;;;;;;;23.08;43.16;101839.78;5204357;28;20409;-53
2022/05/20 10:13:30;;;;;;;14.70;8.73;;;;;;;22.96;43.25;101831.47;5205227;28;20421;-51
2022/05/20 10:16:19;;;;;;;15.35;8.57;;;;;;;22.75;43.28;101794.78;5201926;28;20929;-52
2022/05/20 10:19:03;;;;;;;16.45;7.85;;;;;;;23.01;43.27;101808.28;5202848;28;20475;-49
2022/05/20 10:21:51;;;;;;;11.37;8.07;;;;;;;23.05;43.20;101789.81;5204259;28;20897;-51
2022/05/20 10:24:45;;;;;;;12.15;6.28;;;;;;;23.01;43.41;101796.69;5206171;28;20765;-54
2022/05/20 10:27:23;;;;;;;9.20;6.50;;;;;;;22.97;43.38;101769.31;5201079;28;20432;-55
2022/05/20 10:33:00;;;;;;;10.95;6.78;;;;;;;22.93;43.39;101757.25;5203469;28;20417;-54
2022/05/20 10:35:54;;;;;;;12.70;7.70;;;;;;;22.75;43.63;101733.66;5205088;28;20534;-53
2022/05/20 10:38:58;;;;;;;11.95;7.65;;;;;;;22.79;43.73;101744.84;5198865;28;20564;-49
2022/05/20 10:42:18;;;;;;;13.60;8.27;;;;;;;22.86;43.47;101734.91;5197948;28;20545;-51
2022/05/20 10:48:38;;;;;;;12.55;7.07;;;;;;;23.18;43.34;101713.50;5199782;28;20429;-52
2022/05/20 10:51:44;;;;;;;10.40;7.45;;;;;;;23.20;43.42;101716.84;5199956;28;20495;-54
2022/05/20 10:54:56;;;;;;;15.25;8.35;;;;;;;23.17;43.67;101696.53;5204821;28;20425;-51
2022/05/20 10:58:07;;;;;;;10.85;7.38;;;;;;;23.13;43.77;101708.75;5187873;28;20475;-54
2022/05/20 11:00:51;;;;;;;19.35;9.13;;;;;;;22.92;43.87;101685.59;5180632;28;20513;-53
2022/05/20 11:04:16;;;;;;;15.38;8.70;;;;;;;22.80;44.02;101660.34;5191098;28;20729;-55
2022/05/20 11:07:26;;;;;;;14.07;8.45;;;;;;;22.83;43.89;101649.13;5192678;28;20504;-54
2022/05/20 11:10:36;;;;;;;13.48;8.15;;;;;;;22.87;43.89;101622.59;5201192;28;20432;-54
2022/05/20 11:13:22;;;;;;;14.00;7.80;;;;;;;22.70;44.02;101589.91;5200110;28;20413;-52
2022/05/20 11:16:16;;;;;;;12.65;8.05;;;;;;;22.62;43.97;101588.28;5197922;28;20516;-51
2022/05/20 11:19:36;;;;;;;18.13;9.00;;;;;;;22.69;44.01;101604.41;5197971;28;20504;-51
2022/05/20 11:23:00;;;;;;;13.93;8.00;;;;;;;22.71;44.05;101602.34;5193836;28;20738;-49
2022/05/20 11:25:54;;;;;;;16.15;11.52;;;;;;;22.57;44.20;101601.53;5193413;28;22029;-49
2022/05/20 11:29:22;;;;;;;20.45;11.18;;;;;;;22.26;44.69;101578.00;5188497;28;20497;-50
2022/05/20 11:31:58;;;;;;;19.73;12.98;;;;;;;21.85;45.01;101534.16;5183785;28;20457;-50
2022/05/20 11:35:01;;;;;;;21.77;14.52;;;;;;;22.01;45.31;101575.91;5192123;28;20414;-52
2022/05/20 11:38:03;;;;;;;25.88;14.90;;;;;;;21.77;45.64;101563.09;5189791;28;20446;-52
2022/05/20 11:40:55;;;;;;;23.67;15.20;;;;;;;21.67;45.94;101573.44;5191669;28;20495;-52
2022/05/20 11:44:02;;;;;;;23.67;13.70;;;;;;;21.66;46.13;101572.63;5192800;28;20864;-52
2022/05/20 11:46:58;;;;;;;23.40;14.27;;;;;;;21.67;46.07;101576.13;5151698;28;20413;-55
2022/05/20 11:49:46;;;;;;;20.63;13.45;;;;;;;21.42;46.06;101541.78;5198712;28;20972;-52
2022/05/20 11:52:44;;;;;;;21.88;14.65;;;;;;;21.86;46.09;101588.75;5196189;28;20468;-53
2022/05/20 11:55:21;;;;;;;22.50;14.37;;;;;;;21.95;46.03;101582.13;5189066;28;20452;-51
2022/05/20 11:58:01;;;;;;;20.58;14.73;;;;;;;21.97;45.93;101558.56;5195213;28;20473;-50
2022/05/20 12:00:38;;;;;;;25.40;16.52;;;;;;;22.01;46.03;101532.88;5197523;28;20603;-50
2022/05/20 12:03:15;;;;;;;21.42;15.32;;;;;;;21.89;46.36;101518.41;5199412;28;20463;-51
2022/05/20 12:05:51;;;;;;;25.33;16.63;;;;;;;21.80;46.33;101530.41;5196852;28;20546;-53
2022/05/20 12:08:51;;;;;;;26.48;16.50;;;;;;;21.88;46.51;101520.28;5194241;28;20465;-55
2022/05/20 12:11:30;;;;;;;25.88;16.30;;;;;;;21.59;46.58;101459.72;5196136;28;20467;-56
2022/05/20 12:14:08;;;;;;;23.13;16.27;;;;;;;21.56;47.13;101489.69;5200890;28;20433;-55
2022/05/20 12:16:59;;;;;;;22.42;15.73;;;;;;;21.55;47.36;101506.84;5197763;28;20508;-54
2022/05/20 12:25:48;;;;;;;21.60;15.73;;;;;;;21.15;48.18;101533.63;5193790;28;20457;-50
2022/05/20 12:28:33;;;;;;;25.92;15.35;;;;;;;21.27;47.72;101498.09;5194736;28;20457;-45
2022/05/20 12:31:09;;;;;;;22.27;15.50;;;;;;;21.07;48.22;101498.91;5189690;28;21102;-50
2022/05/20 12:33:56;;;;;;;24.50;17.00;;;;;;;21.09;48.62;101521.03;5197986;28;21184;-51
2022/05/20 12:36:36;;;;;;;27.58;17.15;;;;;;;20.92;48.59;101500.91;5194665;28;20455;-48
2022/05/20 12:39:22;;;;;;;28.67;18.27;;;;;;;20.98;48.86;101521.59;5195269;28;20923;-49
2022/05/20 12:42:23;;;;;;;37.00;19.07;;;;;;;21.02;49.04;101536.25;5191177;28;20977;-49
2022/05/20 12:44:56;;;;;;;33.67;20.23;;;;;;;21.07;49.00;101560.66;5190793;28;20423;-51